Time;durP1;ratioP1;P1;durP2;ratioP2;P2;SDS_P1;SDS_P2;PMS_P1;PMS_P2;Temp;Humidity;BMP_temperature;BMP_pressure;BME280_temperature;BME280_humidity;BME280_pressure;Samples;Min_cycle;Max_cycle;Signal;HPM_P1;HPM_P2
2023/10/11 00:01:58;;;;;;;16.60;6.07;;;13.20;99.90;;;;;;5019382;28;20054;-84
2023/10/11 00:04:48;;;;;;;19.23;6.50;;;13.20;99.90;;;;;;5006486;28;20046;-85
2023/10/11 00:07:38;;;;;;;18.65;6.78;;;13.30;99.90;;;;;;5006669;28;20157;-85
2023/10/11 00:10:27;;;;;;;17.38;7.00;;;13.30;99.90;;;;;;5007779;28;20378;-85
2023/10/11 00:13:18;;;;;;;18.90;6.15;;;13.40;99.90;;;;;;5017231;28;20054;-85
2023/10/11 00:16:07;;;;;;;20.05;7.18;;;13.50;99.90;;;;;;5008076;28;20045;-85
2023/10/11 00:18:55;;;;;;;19.15;6.32;;;13.70;99.90;;;;;;5023683;28;20053;-85
2023/10/11 00:21:43;;;;;;;22.70;6.85;;;13.80;99.90;;;;;;5010525;28;20717;-85
2023/10/11 00:24:30;;;;;;;16.13;6.35;;;13.90;99.90;;;;;;5016114;28;20377;-86
2023/10/11 00:27:20;;;;;;;19.33;5.90;;;13.90;99.90;;;;;;5029086;28;20377;-85
2023/10/11 00:30:08;;;;;;;18.67;6.72;;;13.80;99.90;;;;;;5024000;28;20065;-85
2023/10/11 00:32:56;;;;;;;16.42;6.47;;;13.80;99.90;;;;;;5028736;28;20064;-85
2023/10/11 00:35:48;;;;;;;18.73;6.60;;;13.70;99.90;;;;;;5021843;28;20053;-85
2023/10/11 00:38:49;;;;;;;18.95;7.03;;;13.60;99.90;;;;;;5015605;28;20141;-85
2023/10/11 00:41:39;;;;;;;15.20;5.88;;;13.60;99.90;;;;;;5020545;28;20053;-83
2023/10/11 00:44:32;;;;;;;19.65;6.68;;;13.60;99.90;;;;;;5028344;28;20076;-85
2023/10/11 00:47:22;;;;;;;18.40;6.25;;;13.60;99.90;;;;;;5022531;28;20045;-86
2023/10/11 00:50:14;;;;;;;17.75;6.47;;;13.60;99.90;;;;;;5007683;28;20455;-84
2023/10/11 00:53:01;;;;;;;19.23;7.15;;;13.60;99.90;;;;;;5028390;28;20042;-85
2023/10/11 00:55:49;;;;;;;17.58;7.05;;;13.60;99.90;;;;;;5017989;28;20049;-85
2023/10/11 00:58:39;;;;;;;20.02;7.13;;;13.60;99.90;;;;;;5015957;28;20060;-85
2023/10/11 01:01:29;;;;;;;18.17;6.07;;;13.60;99.90;;;;;;5029989;28;20650;-85
2023/10/11 01:04:19;;;;;;;16.75;6.60;;;13.60;99.90;;;;;;5025447;28;20045;-85
2023/10/11 01:07:08;;;;;;;19.73;6.55;;;13.60;99.90;;;;;;5014087;28;20050;-85
2023/10/11 01:09:58;;;;;;;17.67;6.28;;;13.60;99.90;;;;;;5021508;28;20472;-83
2023/10/11 01:12:46;;;;;;;17.75;6.72;;;13.40;99.90;;;;;;5031633;28;20048;-87
2023/10/11 01:15:33;;;;;;;18.27;7.18;;;13.30;99.90;;;;;;5030131;28;20053;-86
2023/10/11 01:18:22;;;;;;;16.27;6.63;;;13.20;99.90;;;;;;5018026;28;20042;-87
2023/10/11 01:21:14;;;;;;;17.23;6.70;;;13.00;1.00;;;;;;5013835;28;20053;-87
2023/10/11 01:24:05;;;;;;;16.37;6.57;;;12.90;1.00;;;;;;5022921;28;20122;-85
2023/10/11 01:26:56;;;;;;;15.80;6.50;;;12.80;1.00;;;;;;5019356;28;20470;-87
2023/10/11 01:29:43;;;;;;;24.60;7.03;;;12.80;1.00;;;;;;5022732;28;20065;-85
2023/10/11 01:32:34;;;;;;;24.55;6.60;;;12.90;1.00;;;;;;5023892;28;20092;-87
2023/10/11 01:35:21;;;;;;;24.73;7.55;;;13.10;1.00;;;;;;5023156;28;20397;-86
2023/10/11 01:38:17;;;;;;;16.10;6.75;;;13.30;1.00;;;;;;5024492;28;20446;-85
2023/10/11 01:41:06;;;;;;;21.42;6.68;;;13.30;1.00;;;;;;5026910;28;20060;-85
2023/10/11 01:43:56;;;;;;;20.63;6.75;;;13.50;1.00;;;;;;5019756;28;20096;-85
2023/10/11 01:46:53;;;;;;;15.52;6.50;;;13.60;1.00;;;;;;5027277;28;20137;-84
2023/10/11 01:49:40;;;;;;;16.48;5.72;;;13.70;1.00;;;;;;5020419;28;20391;-84
2023/10/11 01:52:27;;;;;;;18.48;6.55;;;13.90;1.00;;;;;;5020056;28;20082;-85
2023/10/11 01:55:16;;;;;;;17.55;7.18;;;14.00;1.00;;;;;;5012145;28;20041;-83
2023/10/11 01:58:06;;;;;;;18.70;6.32;;;14.00;99.90;;;;;;5017944;28;20057;-82
2023/10/11 02:00:53;;;;;;;20.50;6.47;;;14.00;99.90;;;;;;5034498;28;20052;-85
2023/10/11 02:03:46;;;;;;;24.20;7.50;;;13.90;99.90;;;;;;5016739;28;20062;-86
2023/10/11 02:06:33;;;;;;;;;;;13.70;99.90;;;;;;5016592;28;20060;-86
2023/10/11 02:09:21;;;;;;;12.85;6.18;;;13.50;99.90;;;;;;5017709;28;19924;-85
2023/10/11 02:12:10;;;;;;;14.60;6.47;;;13.50;1.00;;;;;;5017394;28;20041;-86
2023/10/11 02:15:01;;;;;;;15.10;6.65;;;13.60;1.00;;;;;;5034561;28;20053;-84
2023/10/11 02:17:52;;;;;;;20.30;6.00;;;13.60;1.00;;;;;;5018719;28;20369;-84
2023/10/11 02:20:44;;;;;;;17.98;6.50;;;13.70;1.00;;;;;;5012738;28;20362;-85
2023/10/11 02:23:37;;;;;;;17.52;6.55;;;13.80;99.90;;;;;;5011259;28;20045;-85
2023/10/11 02:26:30;;;;;;;19.60;6.53;;;13.90;99.90;;;;;;5018379;28;20472;-86
2023/10/11 02:29:21;;;;;;;21.58;7.53;;;13.80;99.90;;;;;;5030482;28;20556;-86
2023/10/11 02:32:09;;;;;;;19.90;6.05;;;13.80;99.90;;;;;;5011994;28;20049;-86
2023/10/11 02:34:56;;;;;;;20.90;6.50;;;13.80;99.90;;;;;;5020534;28;20041;-84
2023/10/11 02:37:45;;;;;;;14.25;5.88;;;13.70;99.90;;;;;;5022298;28;20049;-84
2023/10/11 02:40:37;;;;;;;20.90;6.32;;;13.80;99.90;;;;;;5012895;28;20041;-86
2023/10/11 02:43:33;;;;;;;17.80;6.07;;;13.80;99.90;;;;;;5008322;28;20057;-86
2023/10/11 02:46:23;;;;;;;18.98;7.38;;;13.80;99.90;;;;;;5028427;28;20355;-86
2023/10/11 02:49:19;;;;;;;17.70;6.60;;;13.80;99.90;;;;;;5030682;28;20052;-84
2023/10/11 02:52:07;;;;;;;16.45;6.45;;;13.80;99.90;;;;;;5030988;28;20050;-85
2023/10/11 02:54:59;;;;;;;15.73;5.80;;;13.80;99.90;;;;;;5026450;28;20038;-85
2023/10/11 02:57:47;;;;;;;20.40;6.63;;;13.80;99.90;;;;;;5023735;28;20046;-86
2023/10/11 03:00:36;;;;;;;19.98;6.68;;;13.70;99.90;;;;;;5021169;28;20042;-86
2023/10/11 03:03:26;;;;;;;20.42;6.68;;;13.70;99.90;;;;;;5017496;28;20053;-85
2023/10/11 03:06:13;;;;;;;15.20;6.05;;;13.70;99.90;;;;;;5031592;28;20517;-85
2023/10/11 03:09:01;;;;;;;17.75;6.30;;;13.60;99.90;;;;;;5027752;28;20134;-86
2023/10/11 03:11:48;;;;;;;13.23;5.65;;;13.50;99.90;;;;;;5025608;28;20045;-84
2023/10/11 03:14:41;;;;;;;16.98;6.78;;;13.40;99.90;;;;;;5019874;28;20192;-86
2023/10/11 03:17:31;;;;;;;19.08;6.32;;;13.30;1.00;;;;;;5030745;28;20152;-85
2023/10/11 03:20:36;;;;;;;18.35;6.43;;;13.20;1.00;;;;;;5022237;28;20052;-84
2023/10/11 03:23:27;;;;;;;18.70;7.28;;;13.10;1.00;;;;;;5027966;28;20045;-85
2023/10/11 03:26:22;;;;;;;17.98;7.45;;;13.20;1.00;;;;;;5029508;28;20045;-84
2023/10/11 03:29:17;;;;;;;26.20;7.00;;;13.20;1.00;;;;;;5018902;28;20060;-84
2023/10/11 03:32:09;;;;;;;18.02;7.55;;;13.10;1.00;;;;;;5031608;28;20061;-86
2023/10/11 03:34:56;;;;;;;21.50;6.10;;;13.10;1.00;;;;;;5024962;28;20049;-85
2023/10/11 03:37:59;;;;;;;16.60;6.32;;;13.30;1.00;;;;;;5023385;28;20041;-83
2023/10/11 03:41:07;;;;;;;17.05;5.95;;;13.30;1.00;;;;;;5020109;28;20037;-85
2023/10/11 03:44:09;;;;;;;20.73;7.03;;;13.30;1.00;;;;;;5033274;28;20052;-85
2023/10/11 03:46:58;;;;;;;14.88;6.32;;;13.30;1.00;;;;;;5019826;28;20046;-84
2023/10/11 03:49:51;;;;;;;14.88;5.78;;;13.30;1.00;;;;;;5031973;28;20042;-83
2023/10/11 03:52:40;;;;;;;15.85;6.72;;;13.30;1.00;;;;;;5026127;28;20041;-83
2023/10/11 03:55:31;;;;;;;16.30;7.45;;;13.20;1.00;;;;;;5032121;28;20116;-86
2023/10/11 03:58:32;;;;;;;12.88;6.53;;;13.20;1.00;;;;;;5026673;28;20126;-83
2023/10/11 04:01:28;;;;;;;19.05;6.13;;;13.20;1.00;;;;;;5025221;28;20073;-82
2023/10/11 04:04:16;;;;;;;19.25;6.53;;;13.20;1.00;;;;;;5046576;28;20036;-83
2023/10/11 04:07:06;;;;;;;20.25;6.40;;;13.20;1.00;;;;;;5056061;28;20076;-81
2023/10/11 04:10:04;;;;;;;23.05;7.22;;;13.20;1.00;;;;;;5032376;28;20046;-84
2023/10/11 04:12:53;;;;;;;20.88;5.88;;;13.30;1.00;;;;;;5038671;28;20056;-85
2023/10/11 04:15:49;;;;;;;18.17;6.85;;;13.30;1.00;;;;;;5027389;28;20049;-85
2023/10/11 04:18:43;;;;;;;19.17;6.53;;;13.30;1.00;;;;;;5020608;28;20069;-85
2023/10/11 04:21:53;;;;;;;13.77;5.60;;;13.30;1.00;;;;;;5024777;28;20044;-86
2023/10/11 04:24:45;;;;;;;11.98;5.70;;;13.30;1.00;;;;;;5038340;28;20053;-86
2023/10/11 04:30:41;;;;;;;19.38;5.72;;;13.10;1.00;;;;;;5038015;28;20056;-85
2023/10/11 04:33:31;;;;;;;14.23;5.93;;;13.10;1.00;;;;;;5024134;28;20050;-85
2023/10/11 04:36:21;;;;;;;15.63;6.57;;;13.00;1.00;;;;;;5028907;28;20127;-85
2023/10/11 04:39:18;;;;;;;16.83;6.10;;;13.00;1.00;;;;;;5030807;28;20072;-85
2023/10/11 04:42:08;;;;;;;12.63;5.85;;;13.00;1.00;;;;;;5024660;28;20143;-85
2023/10/11 04:44:59;;;;;;;18.95;6.53;;;13.00;1.00;;;;;;5030539;28;20045;-85
2023/10/11 04:47:56;;;;;;;20.92;6.32;;;13.00;1.00;;;;;;5020471;28;20045;-85
2023/10/11 04:50:47;;;;;;;16.30;6.63;;;13.00;1.00;;;;;;5014824;28;20053;-85
2023/10/11 04:53:45;;;;;;;16.30;5.90;;;13.00;1.00;;;;;;5007891;28;20061;-85
2023/10/11 05:02:32;;;;;;;22.85;5.95;;;12.90;99.90;;;;;;5027191;28;20045;-85
2023/10/11 05:05:22;;;;;;;21.00;6.13;;;12.80;1.00;;;;;;5031498;28;20045;-83
2023/10/11 05:08:21;;;;;;;22.63;6.40;;;12.80;1.00;;;;;;5021723;28;20063;-86
2023/10/11 05:11:18;;;;;;;19.52;6.40;;;12.80;1.00;;;;;;5020271;28;20090;-86
2023/10/11 05:22:53;;;;;;;22.33;6.00;;;12.60;1.00;;;;;;5021180;28;20045;-86
2023/10/11 05:26:34;;;;;;;14.00;5.65;;;12.70;1.00;;;;;;5009565;28;20041;-82
2023/10/11 05:29:08;;;;;;;14.32;5.68;;;12.70;99.90;;;;;;5023440;28;20137;-82
2023/10/11 05:32:20;;;;;;;18.42;5.75;;;12.70;99.90;;;;;;5004664;28;20466;-83
2023/10/11 05:50:54;;;;;;;17.40;6.20;;;12.80;99.90;;;;;;5033556;28;20042;-86
2023/10/11 05:53:46;;;;;;;21.30;6.15;;;12.80;99.90;;;;;;5027692;28;20119;-85
2023/10/11 05:56:34;;;;;;;14.38;5.75;;;12.90;99.90;;;;;;5033602;28;20081;-84
2023/10/11 05:59:21;;;;;;;16.05;5.88;;;12.90;99.90;;;;;;5006590;28;20480;-84
2023/10/11 06:02:18;;;;;;;11.93;5.05;;;13.00;99.90;;;;;;5015664;28;20076;-84
2023/10/11 06:05:14;;;;;;;15.23;5.60;;;13.10;99.90;;;;;;5030606;28;20053;-84
2023/10/11 06:08:03;;;;;;;11.88;6.32;;;13.20;99.90;;;;;;5015852;28;20045;-85
2023/10/11 06:10:54;;;;;;;26.13;6.50;;;13.20;99.90;;;;;;5026887;28;20474;-86
2023/10/11 06:13:45;;;;;;;16.92;5.85;;;13.30;99.90;;;;;;5007686;28;20060;-85
2023/10/11 06:16:43;;;;;;;17.75;6.35;;;13.40;99.90;;;;;;5010813;28;20353;-85
2023/10/11 06:19:32;;;;;;;18.00;6.13;;;13.50;99.90;;;;;;5033567;28;20080;-83
2023/10/11 06:22:28;;;;;;;19.02;5.30;;;13.60;99.90;;;;;;5030004;28;20044;-86
2023/10/11 06:25:22;;;;;;;20.35;6.10;;;13.60;99.90;;;;;;5020280;28;20052;-86
2023/10/11 06:28:13;;;;;;;20.95;6.65;;;13.50;99.90;;;;;;5036576;28;20581;-85
2023/10/11 06:31:01;;;;;;;12.88;5.72;;;13.50;99.90;;;;;;5028203;28;20053;-86
2023/10/11 06:34:17;;;;;;;18.83;6.22;;;13.70;99.90;;;;;;5011063;28;20029;-84
2023/10/11 06:37:10;;;;;;;18.73;5.30;;;14.10;99.90;;;;;;5009650;28;20047;-86
2023/10/11 06:42:57;;;;;;;14.98;5.22;;;14.50;99.90;;;;;;5036335;28;20132;-84
2023/10/11 06:45:44;;;;;;;13.25;5.03;;;15.00;99.90;;;;;;5020125;28;20120;-85
2023/10/11 06:48:32;;;;;;;14.60;5.60;;;15.40;99.90;;;;;;5025915;28;20054;-84
2023/10/11 06:51:25;;;;;;;20.20;5.20;;;15.90;99.90;;;;;;5020579;28;20041;-84
2023/10/11 06:54:15;;;;;;;23.48;5.22;;;16.30;99.40;;;;;;5019932;28;20042;-84
2023/10/11 06:57:03;;;;;;;21.95;5.50;;;16.60;78.00;;;;;;5029727;28;20041;-84
2023/10/11 07:04:00;;;;;;;18.67;5.28;;;17.20;35.30;;;;;;5025563;28;20079;-84
2023/10/11 07:06:53;;;;;;;16.17;4.85;;;17.60;21.90;;;;;;5034445;28;20065;-84
2023/10/11 07:09:56;;;;;;;15.93;5.70;;;17.70;13.00;;;;;;5021157;28;20045;-84
2023/10/11 07:12:50;;;;;;;;;;;17.80;9.80;;;;;;5011299;28;20052;-82
2023/10/11 07:15:43;;;;;;;12.63;4.47;;;17.90;5.80;;;;;;5033022;28;19925;-84
2023/10/11 07:18:39;;;;;;;;;;;18.00;2.80;;;;;;5027957;28;20110;-84
2023/10/11 07:24:40;;;;;;;13.73;4.80;;;18.40;1.00;;;;;;5023254;28;20048;-85
2023/10/11 07:27:41;;;;;;;14.95;4.57;;;18.50;1.00;;;;;;5028811;28;20053;-83
2023/10/11 07:30:37;;;;;;;16.65;4.88;;;18.30;1.00;;;;;;5003239;28;20050;-84
2023/10/11 07:33:26;;;;;;;16.58;4.50;;;18.20;1.00;;;;;;5015189;28;20057;-85
2023/10/11 07:36:13;;;;;;;12.88;4.50;;;18.00;1.00;;;;;;5018864;28;20053;-84
2023/10/11 07:39:14;;;;;;;11.15;4.10;;;18.00;1.00;;;;;;5033589;28;20099;-84
2023/10/11 07:42:09;;;;;;;12.65;4.88;;;18.00;1.00;;;;;;5025363;28;20175;-84
2023/10/11 07:45:00;;;;;;;22.70;5.80;;;18.20;1.00;;;;;;5012056;28;20045;-82
2023/10/11 07:47:52;;;;;;;16.55;4.40;;;18.20;1.00;;;;;;5006515;28;20158;-84
2023/10/11 07:50:42;;;;;;;14.68;4.13;;;18.30;1.00;;;;;;5018551;28;20473;-84
2023/10/11 07:53:32;;;;;;;15.88;4.63;;;18.70;1.00;;;;;;5017437;28;20057;-83
2023/10/11 07:56:24;;;;;;;13.18;4.38;;;19.10;1.00;;;;;;5012999;28;20045;-83
2023/10/11 07:59:12;;;;;;;17.38;4.47;;;19.60;1.00;;;;;;5029600;28;20057;-83
2023/10/11 08:02:26;;;;;;;12.05;4.72;;;19.60;1.00;;;;;;5010446;28;20091;-83
2023/10/11 08:05:14;;;;;;;15.88;5.28;;;19.50;1.00;;;;;;5002725;28;20050;-83
2023/10/11 08:08:05;;;;;;;14.60;4.68;;;19.50;1.00;;;;;;5022331;28;20097;-82
2023/10/11 08:10:54;;;;;;;13.23;4.55;;;19.50;1.00;;;;;;5009976;28;20046;-82
2023/10/11 08:13:49;;;;;;;19.85;4.97;;;19.30;1.00;;;;;;5019165;28;20038;-83
2023/10/11 08:16:40;;;;;;;9.88;3.92;;;19.40;1.00;;;;;;5016112;28;20220;-82
2023/10/11 08:19:30;;;;;;;13.50;4.30;;;19.40;1.00;;;;;;5020799;28;20054;-82
2023/10/11 08:22:17;;;;;;;13.55;4.88;;;19.40;1.00;;;;;;5042398;28;20060;-87
2023/10/11 08:25:12;;;;;;;24.35;4.32;;;19.60;1.00;;;;;;5028751;28;20064;-87
2023/10/11 08:28:12;;;;;;;17.98;4.40;;;19.70;1.00;;;;;;5025586;28;20097;-85
2023/10/11 08:31:08;;;;;;;18.02;4.13;;;19.90;1.00;;;;;;5019686;28;20049;-86
2023/10/11 08:33:57;;;;;;;15.57;5.53;;;20.10;1.00;;;;;;5025378;28;20172;-85
2023/10/11 08:36:48;;;;;;;13.05;4.60;;;20.00;1.00;;;;;;5026789;28;20050;-86
2023/10/11 08:39:42;;;;;;;17.80;4.55;;;20.10;1.00;;;;;;5020240;28;20105;-87
2023/10/11 08:42:32;;;;;;;20.00;5.63;;;20.00;1.00;;;;;;5026026;28;20056;-86
2023/10/11 08:45:33;;;;;;;15.45;4.90;;;20.10;1.00;;;;;;5030890;28;20041;-86
2023/10/11 08:48:24;;;;;;;18.17;4.18;;;20.20;1.00;;;;;;5021147;28;20140;-89
2023/10/11 08:51:22;;;;;;;15.63;4.50;;;20.50;1.00;;;;;;5015446;28;20045;-87
2023/10/11 08:54:38;;;;;;;16.00;4.38;;;20.80;1.00;;;;;;5023588;28;20124;-88
2023/10/11 08:57:31;;;;;;;17.42;4.70;;;21.00;1.00;;;;;;5023029;28;20453;-87
2023/10/11 09:00:37;;;;;;;19.65;4.32;;;21.10;1.00;;;;;;5030357;28;20055;-89
2023/10/11 09:03:26;;;;;;;15.10;4.30;;;21.20;1.00;;;;;;5001727;28;20061;-89
2023/10/11 09:06:24;;;;;;;19.48;4.25;;;20.90;1.00;;;;;;5016524;28;20087;-89
2023/10/11 09:09:39;;;;;;;17.27;4.80;;;20.90;1.00;;;;;;5002010;28;20042;-88
2023/10/11 09:12:43;;;;;;;14.35;4.80;;;21.30;1.00;;;;;;5017941;28;20046;-89
2023/10/11 09:15:42;;;;;;;13.52;3.97;;;21.70;1.00;;;;;;5029496;28;20045;-88
2023/10/11 09:18:34;;;;;;;19.08;4.32;;;22.10;1.00;;;;;;5013924;28;20104;-91
2023/10/11 09:21:29;;;;;;;10.73;3.85;;;22.50;1.00;;;;;;5017629;28;20057;-89
2023/10/11 09:24:25;;;;;;;22.98;5.32;;;22.90;1.00;;;;;;5028680;28;20196;-86
2023/10/11 09:30:19;;;;;;;19.55;4.85;;;24.20;1.00;;;;;;5030858;28;20056;-87
2023/10/11 09:33:19;;;;;;;17.35;4.50;;;24.30;1.00;;;;;;5027929;28;20076;-88
2023/10/11 09:36:11;;;;;;;14.05;3.97;;;24.30;1.00;;;;;;5024847;28;20135;-87
2023/10/11 09:38:59;;;;;;;14.50;4.40;;;24.00;1.00;;;;;;5031767;28;20057;-86
2023/10/11 09:41:52;;;;;;;17.20;4.80;;;24.60;1.00;;;;;;5015139;28;20056;-88
2023/10/11 09:44:43;;;;;;;10.25;3.97;;;25.40;1.00;;;;;;5010668;28;20155;-88
2023/10/11 09:47:34;;;;;;;14.63;4.72;;;26.10;1.00;;;;;;5034788;28;20061;-86
2023/10/11 09:50:26;;;;;;;14.02;3.83;;;27.40;1.00;;;;;;5032002;28;20041;-85
2023/10/11 09:53:16;;;;;;;17.15;4.60;;;27.70;1.00;;;;;;5016393;28;20072;-86
2023/10/11 09:56:32;;;;;;;13.50;4.60;;;28.00;1.00;;;;;;5009302;28;20042;-88
2023/10/11 09:59:37;;;;;;;18.70;4.53;;;28.40;1.00;;;;;;5005331;28;20033;-88
2023/10/11 10:02:39;;;;;;;15.10;4.07;;;28.70;1.00;;;;;;5013226;28;20037;-87
2023/10/11 10:05:49;;;;;;;15.30;4.88;;;27.90;1.00;;;;;;5009817;28;20045;-83
2023/10/11 10:08:37;;;;;;;11.85;4.28;;;28.00;1.00;;;;;;5011463;28;20049;-83
2023/10/11 10:11:24;;;;;;;17.33;4.47;;;27.70;1.00;;;;;;5016555;28;20351;-84
2023/10/11 10:14:30;;;;;;;18.73;4.10;;;27.60;1.00;;;;;;5001756;28;20065;-84
2023/10/11 10:17:18;;;;;;;17.80;3.97;;;27.70;1.00;;;;;;5029805;28;20033;-84
2023/10/11 10:20:41;;;;;;;14.80;4.35;;;27.40;1.00;;;;;;5025325;28;20098;-84
2023/10/11 10:23:33;;;;;;;14.52;4.15;;;27.50;1.00;;;;;;5029819;28;20382;-84
2023/10/11 10:26:22;;;;;;;15.55;4.82;;;27.30;1.00;;;;;;5007732;28;20048;-83
2023/10/11 10:29:12;;;;;;;14.88;3.85;;;27.10;1.00;;;;;;5012391;28;20058;-83
2023/10/11 10:32:08;;;;;;;19.23;4.30;;;27.50;1.00;;;;;;5020762;28;20038;-83
2023/10/11 10:35:20;;;;;;;12.27;3.90;;;27.60;1.00;;;;;;5018991;28;20053;-83
2023/10/11 10:38:09;;;;;;;14.97;3.87;;;27.80;1.00;;;;;;5029094;28;20377;-85
2023/10/11 10:41:27;;;;;;;13.35;3.63;;;28.70;1.00;;;;;;5016897;28;20072;-83
2023/10/11 10:44:17;;;;;;;21.42;4.65;;;28.70;1.00;;;;;;5013463;28;20048;-83
2023/10/11 10:47:08;;;;;;;12.95;4.70;;;28.80;1.00;;;;;;5015305;28;20053;-83
2023/10/11 10:49:56;;;;;;;17.02;4.10;;;29.00;1.00;;;;;;5010537;28;20057;-83
2023/10/11 10:52:53;;;;;;;13.55;4.30;;;28.20;1.00;;;;;;5014902;28;20068;-83
2023/10/11 10:55:44;;;;;;;12.85;3.42;;;28.50;1.00;;;;;;5021172;28;20523;-83
2023/10/11 10:58:35;;;;;;;14.50;3.90;;;28.30;1.00;;;;;;5006964;28;20088;-83
2023/10/11 11:01:28;;;;;;;13.43;4.00;;;28.20;1.00;;;;;;5013194;28;20046;-82
2023/10/11 11:04:24;;;;;;;17.38;4.40;;;28.30;1.00;;;;;;5008487;28;20056;-81
2023/10/11 11:07:32;;;;;;;13.65;3.72;;;28.40;1.00;;;;;;5025966;28;20055;-83
2023/10/11 11:10:23;;;;;;;12.35;4.50;;;28.90;1.00;;;;;;5026728;28;20072;-83
2023/10/11 11:13:14;;;;;;;17.92;4.45;;;28.40;1.00;;;;;;5002914;28;20060;-86
2023/10/11 11:16:09;;;;;;;16.63;4.27;;;28.90;1.00;;;;;;5030923;28;20059;-85
2023/10/11 11:19:09;;;;;;;10.38;4.05;;;29.40;1.00;;;;;;5036643;28;20354;-85
2023/10/11 11:22:12;;;;;;;14.20;4.05;;;29.70;1.00;;;;;;5023338;28;20052;-85
2023/10/11 11:25:16;;;;;;;13.75;3.72;;;29.70;1.00;;;;;;5017472;28;20054;-83
2023/10/11 11:28:06;;;;;;;10.32;3.38;;;29.50;1.00;;;;;;5019138;28;20406;-86
2023/10/11 11:30:54;;;;;;;17.25;3.90;;;30.40;1.00;;;;;;5032831;28;20275;-86
2023/10/11 11:34:05;;;;;;;12.07;4.00;;;30.60;1.00;;;;;;5032560;28;20179;-85
2023/10/11 11:36:59;;;;;;;13.45;3.53;;;31.20;1.00;;;;;;5032902;28;20061;-86
2023/10/11 11:40:23;;;;;;;7.43;3.47;;;31.50;1.00;;;;;;5017350;28;20372;-84
2023/10/11 11:43:16;;;;;;;8.98;4.00;;;31.40;1.00;;;;;;5008301;28;20428;-83
2023/10/11 11:46:06;;;;;;;12.40;3.30;;;30.70;1.00;;;;;;5025358;28;20109;-83
2023/10/11 11:48:59;;;;;;;14.63;3.78;;;31.20;1.00;;;;;;5034952;28;20143;-83
2023/10/11 11:51:50;;;;;;;10.13;4.03;;;30.80;1.00;;;;;;5024412;28;20050;-83
2023/10/11 11:54:43;;;;;;;7.70;3.05;;;30.40;1.00;;;;;;5026766;28;20049;-84
2023/10/11 11:57:34;;;;;;;14.93;3.65;;;30.80;1.00;;;;;;5040956;28;20037;-85
2023/10/11 12:03:12;;;;;;;17.92;4.45;;;30.00;1.00;;;;;;5030228;28;20354;-84
2023/10/11 12:06:21;;;;;;;12.40;4.15;;;30.90;1.00;;;;;;5025506;28;20361;-84
2023/10/11 12:09:17;;;;;;;10.70;3.50;;;32.30;1.00;;;;;;5024913;28;20049;-85
2023/10/11 12:12:06;;;;;;;9.52;3.65;;;31.50;1.00;;;;;;5026509;28;20488;-85
2023/10/11 12:14:53;;;;;;;8.07;3.28;;;31.60;1.00;;;;;;5024044;28;20124;-83
2023/10/11 12:17:42;;;;;;;8.48;3.22;;;31.80;1.00;;;;;;5009140;28;20358;-83
2023/10/11 12:20:35;;;;;;;7.50;3.42;;;31.60;1.00;;;;;;5025439;28;20445;-83
2023/10/11 12:23:22;;;;;;;13.77;3.53;;;31.20;1.00;;;;;;5033165;28;20120;-84
2023/10/11 12:26:09;;;;;;;11.88;3.53;;;31.90;1.00;;;;;;5024771;28;20064;-82
2023/10/11 12:28:58;;;;;;;15.70;3.58;;;32.20;1.00;;;;;;5035538;28;20141;-84
2023/10/11 12:31:48;;;;;;;9.18;3.80;;;31.50;1.00;;;;;;5028467;28;20041;-85
2023/10/11 12:34:38;;;;;;;8.77;3.00;;;31.20;1.00;;;;;;5028830;28;20052;-86
2023/10/11 12:37:27;;;;;;;10.48;3.60;;;31.90;1.00;;;;;;5013672;28;20045;-85
2023/10/11 12:40:28;;;;;;;7.82;3.38;;;32.60;1.00;;;;;;5002477;28;20060;-83
2023/10/11 12:43:22;;;;;;;10.83;3.53;;;33.40;1.00;;;;;;5007438;28;20056;-84
2023/10/11 12:46:11;;;;;;;13.05;4.18;;;32.60;1.00;;;;;;5025670;28;20133;-85
2023/10/11 12:49:12;;;;;;;9.50;3.70;;;31.60;1.00;;;;;;5025461;28;20045;-85
2023/10/11 12:52:05;;;;;;;7.80;3.47;;;31.50;1.00;;;;;;5014190;28;20065;-85
2023/10/11 12:54:53;;;;;;;13.00;3.30;;;31.50;1.00;;;;;;5023292;28;20088;-86
2023/10/11 12:57:40;;;;;;;7.03;3.63;;;31.30;1.00;;;;;;5028836;28;20748;-85
2023/10/11 13:00:37;;;;;;;10.75;3.83;;;32.20;1.00;;;;;;5020605;28;20049;-85
2023/10/11 13:03:29;;;;;;;9.07;3.58;;;31.60;1.00;;;;;;5020215;28;20068;-85
2023/10/11 13:06:17;;;;;;;11.38;3.30;;;31.30;1.00;;;;;;5029952;28;20042;-85
2023/10/11 13:09:14;;;;;;;7.97;3.20;;;30.70;1.00;;;;;;5019072;28;20053;-84
2023/10/11 13:12:05;;;;;;;10.98;3.72;;;31.30;1.00;;;;;;5014278;28;20058;-84
2023/10/11 13:15:00;;;;;;;11.68;3.72;;;31.40;1.00;;;;;;5018222;28;20461;-84
2023/10/11 13:17:51;;;;;;;13.27;3.50;;;31.80;1.00;;;;;;5034454;28;20048;-84
2023/10/11 13:20:41;;;;;;;9.75;3.40;;;32.40;1.00;;;;;;5033873;28;20060;-81
2023/10/11 13:23:34;;;;;;;11.85;3.30;;;32.90;1.00;;;;;;5018584;28;20060;-84
2023/10/11 13:26:24;;;;;;;11.25;3.58;;;32.10;1.00;;;;;;5022631;28;20462;-84
2023/10/11 13:29:20;;;;;;;8.05;3.05;;;30.20;1.00;;;;;;5014806;28;20045;-83
2023/10/11 13:32:12;;;;;;;11.98;3.45;;;30.40;1.00;;;;;;5000124;28;20042;-83
2023/10/11 13:35:00;;;;;;;9.88;3.60;;;30.60;1.00;;;;;;5028043;28;20152;-89
2023/10/11 13:37:47;;;;;;;10.20;3.65;;;31.00;1.00;;;;;;5014335;28;20078;-90
2023/10/11 13:40:39;;;;;;;9.05;3.10;;;31.40;1.00;;;;;;5033656;28;20456;-90
2023/10/11 13:43:27;;;;;;;9.82;2.95;;;31.70;1.00;;;;;;5028564;28;20045;-89
2023/10/11 13:46:19;;;;;;;10.85;3.40;;;31.70;1.00;;;;;;5029347;28;20148;-89
2023/10/11 13:49:24;;;;;;;9.70;3.60;;;31.20;1.00;;;;;;5008350;28;20061;-91
2023/10/11 13:52:12;;;;;;;10.27;3.20;;;31.80;1.00;;;;;;5014949;28;20137;-87
2023/10/11 13:55:08;;;;;;;7.88;3.30;;;32.30;1.00;;;;;;5029949;28;20050;-91
2023/10/11 13:57:56;;;;;;;7.65;3.58;;;31.90;1.00;;;;;;5028124;28;20070;-89
2023/10/11 14:03:41;;;;;;;7.68;2.80;;;32.80;1.00;;;;;;5028966;28;20056;-92
2023/10/11 14:06:47;;;;;;;8.95;3.55;;;31.80;1.00;;;;;;5021442;28;20041;-90
2023/10/11 14:09:34;;;;;;;7.57;2.88;;;31.00;1.00;;;;;;5023121;28;20425;-89
2023/10/11 14:12:33;;;;;;;7.95;3.30;;;30.60;1.00;;;;;;5011636;28;20037;-89
2023/10/11 14:15:24;;;;;;;8.93;3.50;;;30.40;1.00;;;;;;5024599;28;20119;-89
2023/10/11 14:18:14;;;;;;;7.28;2.80;;;30.90;1.00;;;;;;5038693;28;20132;-88
2023/10/11 14:21:02;;;;;;;7.85;3.35;;;30.00;1.00;;;;;;5020303;28;20319;-88
2023/10/11 14:23:51;;;;;;;8.88;2.92;;;29.60;1.00;;;;;;5026258;28;20042;-90
2023/10/11 14:26:38;;;;;;;8.75;2.70;;;29.60;1.00;;;;;;5017407;28;20046;-88
2023/10/11 14:29:28;;;;;;;11.57;3.47;;;29.20;1.00;;;;;;5026884;28;20061;-89
2023/10/11 14:32:17;;;;;;;10.95;3.45;;;29.40;1.00;;;;;;5030634;28;20405;-86
2023/10/11 14:35:08;;;;;;;11.38;3.30;;;29.80;1.00;;;;;;5034676;28;20131;-89
2023/10/11 14:37:56;;;;;;;7.63;3.42;;;29.80;1.00;;;;;;5032909;28;20049;-90
2023/10/11 14:40:44;;;;;;;13.07;3.60;;;29.90;1.00;;;;;;5032264;28;20061;-88
2023/10/11 14:43:31;;;;;;;7.22;3.33;;;30.10;1.00;;;;;;5018967;28;20363;-88
2023/10/11 14:46:19;;;;;;;8.02;2.65;;;30.40;1.00;;;;;;5021473;28;20120;-89
2023/10/11 14:49:07;;;;;;;8.93;3.28;;;30.50;1.00;;;;;;5033787;28;20041;-90
2023/10/11 14:51:57;;;;;;;8.45;2.83;;;30.50;1.00;;;;;;5021899;28;20357;-91
2023/10/11 14:54:54;;;;;;;7.47;3.30;;;30.50;1.00;;;;;;5031759;28;20042;-89
2023/10/11 14:57:51;;;;;;;10.88;3.58;;;30.40;1.00;;;;;;5030805;28;20124;-87
2023/10/11 15:00:43;;;;;;;9.30;3.30;;;30.70;1.00;;;;;;5013052;28;20168;-90
2023/10/11 15:03:31;;;;;;;5.95;3.00;;;30.90;1.00;;;;;;5032888;28;20049;-88
2023/10/11 15:06:19;;;;;;;13.07;3.65;;;30.80;1.00;;;;;;5031226;28;20037;-86
2023/10/11 15:09:09;;;;;;;10.52;3.30;;;30.90;1.00;;;;;;5020454;28;20515;-89
2023/10/11 15:11:57;;;;;;;8.25;2.63;;;30.80;1.00;;;;;;5029322;28;20065;-90
2023/10/11 15:14:47;;;;;;;10.45;3.25;;;30.60;1.00;;;;;;5025868;28;20042;-90
2023/10/11 15:17:35;;;;;;;9.30;3.50;;;30.00;1.00;;;;;;5024210;28;20077;-89
2023/10/11 15:20:22;;;;;;;9.98;3.25;;;29.90;1.00;;;;;;5027466;28;20042;-88
2023/10/11 15:23:14;;;;;;;10.50;3.35;;;30.20;1.00;;;;;;5033706;28;20052;-90
2023/10/11 15:26:02;;;;;;;10.20;3.45;;;29.60;1.00;;;;;;5031373;28;20049;-87
2023/10/11 15:28:51;;;;;;;8.98;3.10;;;29.40;1.00;;;;;;5018601;28;20060;-89
2023/10/11 15:31:41;;;;;;;5.40;3.10;;;28.70;1.00;;;;;;5017054;28;20060;-89
2023/10/11 15:34:31;;;;;;;12.25;2.95;;;28.50;1.00;;;;;;5035926;28;20044;-90
2023/10/11 15:37:18;;;;;;;10.45;3.58;;;28.50;1.00;;;;;;5029170;28;20050;-90
2023/10/11 15:40:11;;;;;;;10.43;3.08;;;28.60;1.00;;;;;;5025857;28;20094;-86
2023/10/11 15:42:58;;;;;;;16.98;3.92;;;28.70;1.00;;;;;;5019020;28;20072;-88
2023/10/11 15:45:53;;;;;;;7.05;2.95;;;28.10;1.00;;;;;;5016191;28;20057;-89
2023/10/11 15:48:40;;;;;;;10.30;3.40;;;27.70;1.00;;;;;;5032458;28;20065;-89
2023/10/11 15:51:28;;;;;;;11.02;4.22;;;27.80;1.00;;;;;;5023205;28;20069;-89